createdAt,value
2022-11-21T00:00:32.011Z,9.430249
2022-11-21T00:01:32.104Z,9.430316
2022-11-21T00:02:31.966Z,9.430271
2022-11-21T00:03:31.963Z,9.430305
2022-11-21T00:04:31.996Z,9.430307
2022-11-21T00:05:31.968Z,9.430312
2022-11-21T00:06:31.967Z,9.430287
2022-11-21T00:07:32.014Z,9.430311
2022-11-21T00:08:31.906Z,9.430321
2022-11-21T00:09:31.885Z,9.430331
2022-11-21T00:10:31.900Z,9.430281
2022-11-21T00:11:31.910Z,9.430305
2022-11-21T00:12:31.902Z,9.430374
2022-11-21T00:13:31.883Z,9.430323
2022-11-21T00:14:31.850Z,9.430308
2022-11-21T00:15:31.855Z,9.430315
2022-11-21T00:16:31.858Z,9.430275
2022-11-21T00:17:31.911Z,9.430315
2022-11-21T00:18:31.774Z,9.430305
2022-11-21T00:19:31.759Z,9.430309
2022-11-21T00:20:31.787Z,9.430309
2022-11-21T00:21:31.763Z,9.430305
2022-11-21T00:22:31.751Z,9.430298
2022-11-21T00:23:31.748Z,9.430358
2022-11-21T00:24:31.759Z,9.430347
2022-11-21T00:25:31.703Z,9.430346
2022-11-21T00:26:31.674Z,9.430287
2022-11-21T00:27:31.699Z,9.430317
2022-11-21T00:28:31.708Z,9.430344
2022-11-21T00:29:31.668Z,9.430314
2022-11-21T00:30:31.683Z,9.430323
2022-11-21T00:31:31.659Z,9.430364
2022-11-21T00:32:31.640Z,9.430317
2022-11-21T00:33:31.632Z,9.430361
2022-11-21T00:34:31.661Z,9.430435
2022-11-21T00:35:31.617Z,9.430456
2022-11-21T00:36:31.620Z,9.430442
2022-11-21T00:37:31.603Z,9.430351
2022-11-21T00:38:31.577Z,9.430392
2022-11-21T00:39:31.604Z,9.430393
2022-11-21T00:40:31.565Z,9.430464
2022-11-21T00:41:31.557Z,9.430345
2022-11-21T00:42:31.540Z,9.430355
2022-11-21T00:43:31.521Z,9.430306
2022-11-21T00:44:31.533Z,9.430332
2022-11-21T00:45:31.528Z,9.430327
2022-11-21T00:46:31.508Z,9.430309
2022-11-21T00:47:31.485Z,9.430315
2022-11-21T00:48:31.553Z,9.430335
2022-11-21T00:49:31.453Z,9.430379
2022-11-21T00:50:31.495Z,9.430340
2022-11-21T00:51:31.437Z,9.430323
2022-11-21T00:52:31.401Z,9.430390
2022-11-21T00:53:31.485Z,9.430376
2022-11-21T00:54:31.437Z,9.430359
2022-11-21T00:55:31.385Z,9.430364
2022-11-21T00:56:31.429Z,9.430369
2022-11-21T00:57:31.356Z,9.430333
2022-11-21T00:58:31.425Z,9.430395
2022-11-21T00:59:31.368Z,9.430382
2022-11-21T01:00:31.387Z,9.430385
2022-11-21T01:01:31.309Z,9.430367
2022-11-21T01:02:31.350Z,9.430346
2022-11-21T01:03:31.333Z,9.430392
2022-11-21T01:04:31.317Z,9.430421
2022-11-21T01:05:31.255Z,9.430411
2022-11-21T01:06:31.416Z,9.430376
2022-11-21T01:07:31.256Z,9.430368
2022-11-21T01:08:31.246Z,9.430356
2022-11-21T01:09:31.221Z,9.430331
2022-11-21T01:10:31.221Z,9.430305
2022-11-21T01:11:31.190Z,9.430298
2022-11-21T01:12:31.190Z,9.430386
2022-11-21T01:13:31.189Z,9.430351
2022-11-21T01:14:31.166Z,9.430326
2022-11-21T01:15:31.160Z,9.430356
2022-11-21T01:16:31.154Z,9.430393
2022-11-21T01:17:31.144Z,9.430333
2022-11-21T01:18:31.170Z,9.430342
2022-11-21T01:19:31.114Z,9.430371
2022-11-21T01:20:31.120Z,9.430346
2022-11-21T01:21:31.112Z,9.430403
2022-11-21T01:22:31.121Z,9.430384
2022-11-21T01:23:31.097Z,9.430335
2022-11-21T01:24:31.094Z,9.430326
2022-11-21T01:25:31.054Z,9.430325
2022-11-21T01:26:30.993Z,9.430278
2022-11-21T01:27:31.098Z,9.430367
2022-11-21T01:28:31.229Z,9.430368
2022-11-21T01:29:30.987Z,9.430398
2022-11-21T01:30:31.046Z,9.430363
2022-11-21T01:31:31.005Z,9.430340
2022-11-21T01:32:30.971Z,9.430380
2022-11-21T01:33:31.006Z,9.430385
2022-11-21T01:34:30.945Z,9.430349
2022-11-21T01:35:30.986Z,9.430358
2022-11-21T01:36:30.937Z,9.430336
2022-11-21T01:37:30.970Z,9.430430
2022-11-21T01:38:30.965Z,9.430424
2022-11-21T01:39:30.898Z,9.430465
2022-11-21T01:40:30.879Z,9.430471
2022-11-21T01:41:30.876Z,9.430388
2022-11-21T01:42:30.955Z,9.430425
2022-11-21T01:43:30.871Z,9.430465
2022-11-21T01:44:31.081Z,9.430399
2022-11-21T01:45:30.830Z,9.430405
2022-11-21T01:46:30.818Z,9.430432
2022-11-21T01:47:30.826Z,9.430482
2022-11-21T01:48:30.816Z,9.430448
2022-11-21T01:49:30.934Z,9.430429
2022-11-21T01:50:30.758Z,9.430384
2022-11-21T01:51:30.736Z,9.430573
2022-11-21T01:52:30.763Z,9.430474
2022-11-21T01:53:30.735Z,9.430403
2022-11-21T01:54:31.432Z,9.430453
2022-11-21T01:55:30.672Z,9.430466
2022-11-21T01:56:30.736Z,9.430420
2022-11-21T01:57:30.703Z,9.430380
2022-11-21T01:58:30.680Z,9.430342
2022-11-21T01:59:31.386Z,9.430371
2022-11-21T02:00:30.640Z,9.430413
2022-11-21T02:01:30.721Z,9.430341
2022-11-21T02:02:30.644Z,9.430387
2022-11-21T02:03:30.608Z,9.430362
2022-11-21T02:04:30.619Z,9.430326
2022-11-21T02:05:30.585Z,9.430360
2022-11-21T02:06:30.587Z,9.430345
2022-11-21T02:07:30.664Z,9.430321
2022-11-21T02:08:30.539Z,9.430346
2022-11-21T02:09:30.544Z,9.430329
2022-11-21T02:10:30.550Z,9.430298
2022-11-21T02:11:30.523Z,9.430311
2022-11-21T02:12:30.567Z,9.430300
2022-11-21T02:13:30.524Z,9.430299
2022-11-21T02:14:30.532Z,9.430325
2022-11-21T02:15:30.491Z,9.430295
2022-11-21T02:16:30.506Z,9.430325
2022-11-21T02:17:30.484Z,9.430344
2022-11-21T02:18:30.465Z,9.430361
2022-11-21T02:19:30.444Z,9.430265
2022-11-21T02:20:30.472Z,9.430294
2022-11-21T02:21:30.443Z,9.430373
2022-11-21T02:22:30.395Z,9.430294
2022-11-21T02:23:30.400Z,9.430425
2022-11-21T02:24:30.560Z,9.430338
2022-11-21T02:25:30.363Z,9.430320
2022-11-21T02:26:31.069Z,9.430292
2022-11-21T02:27:30.440Z,9.430321
2022-11-21T02:28:30.309Z,9.430337
2022-11-21T02:29:30.392Z,9.430361
2022-11-21T02:30:30.317Z,9.430337
2022-11-21T02:31:30.341Z,9.430283
2022-11-21T02:32:30.301Z,9.430284
2022-11-21T02:33:30.310Z,9.430362
2022-11-21T02:34:30.375Z,9.430368
2022-11-21T02:35:30.295Z,9.430266
2022-11-21T02:36:30.257Z,9.430303
2022-11-21T02:37:30.238Z,9.430329
2022-11-21T02:38:30.262Z,9.430306
2022-11-21T02:39:30.235Z,9.430338
2022-11-21T02:40:30.214Z,9.430334
2022-11-21T02:41:30.215Z,9.430366
2022-11-21T02:42:30.286Z,9.430417
2022-11-21T02:43:30.198Z,9.430399
2022-11-21T02:44:30.413Z,9.430355
2022-11-21T02:45:30.269Z,9.430315
2022-11-21T02:46:31.161Z,9.430331
2022-11-21T02:47:30.161Z,9.430337
2022-11-21T02:48:30.125Z,9.430354
2022-11-21T02:49:30.127Z,9.430325
2022-11-21T02:50:30.105Z,9.430327
2022-11-21T02:51:30.077Z,9.430297
2022-11-21T02:52:30.941Z,9.430290
2022-11-21T02:53:30.078Z,9.430366
2022-11-21T02:54:30.422Z,9.430336
2022-11-21T02:55:31.024Z,9.430361
2022-11-21T02:56:30.034Z,9.430293
2022-11-21T02:57:30.054Z,9.430328
2022-11-21T02:58:30.026Z,9.430279
2022-11-21T02:59:29.998Z,9.430270
2022-11-21T03:00:29.965Z,9.430287
2022-11-21T03:01:30.078Z,9.430341
2022-11-21T03:02:30.019Z,9.430310
2022-11-21T03:03:29.950Z,9.430328
2022-11-21T03:04:30.135Z,9.430297
2022-11-21T03:05:29.923Z,9.430346
2022-11-21T03:06:29.936Z,9.430360
2022-11-21T03:07:29.949Z,9.430348
2022-11-21T03:08:29.882Z,9.430343
2022-11-21T03:09:29.890Z,9.430362
2022-11-21T03:10:29.878Z,9.430342
2022-11-21T03:11:29.855Z,9.430368
2022-11-21T03:12:29.877Z,9.430354
2022-11-21T03:13:29.847Z,9.430372
2022-11-21T03:14:30.132Z,9.430342
2022-11-21T03:15:29.851Z,9.430326
2022-11-21T03:16:29.782Z,9.430378
2022-11-21T03:17:30.518Z,9.430346
2022-11-21T03:18:29.785Z,9.430377
2022-11-21T03:19:29.786Z,9.430347
2022-11-21T03:20:29.778Z,9.430290
2022-11-21T03:21:29.749Z,9.430294
2022-11-21T03:22:29.751Z,9.430325
2022-11-21T03:23:29.735Z,9.430338
2022-11-21T03:24:29.984Z,9.430418
2022-11-21T03:25:29.728Z,9.430341
2022-11-21T03:26:29.755Z,9.430345
2022-11-21T03:27:29.692Z,9.430341
2022-11-21T03:28:29.679Z,9.430336
2022-11-21T03:29:29.663Z,9.430399
2022-11-21T03:30:29.704Z,9.430372
2022-11-21T03:31:29.656Z,9.430371
2022-11-21T03:32:29.624Z,9.430345
2022-11-21T03:33:29.625Z,9.430313
2022-11-21T03:34:32.921Z,9.430341
2022-11-21T03:35:29.616Z,9.430332
2022-11-21T03:36:29.603Z,9.430348
2022-11-21T03:37:29.603Z,9.430358
2022-11-21T03:38:29.604Z,9.430347
2022-11-21T03:39:29.576Z,9.430336
2022-11-21T03:40:29.569Z,9.430334
2022-11-21T03:41:29.564Z,9.430347
2022-11-21T03:42:29.521Z,9.430345
2022-11-21T03:43:29.558Z,9.430387
2022-11-21T03:44:30.489Z,9.430361
2022-11-21T03:45:29.476Z,9.430300
2022-11-21T03:46:30.421Z,9.430362
2022-11-21T03:47:29.575Z,9.430408
2022-11-21T03:48:29.464Z,9.430368
2022-11-21T03:49:29.481Z,9.430302
2022-11-21T03:50:29.448Z,9.430326
2022-11-21T03:51:29.437Z,9.430341
2022-11-21T03:52:29.455Z,9.430338
2022-11-21T03:53:29.412Z,9.430333
2022-11-21T03:54:29.813Z,9.430298
2022-11-21T03:55:29.421Z,9.430330
2022-11-21T03:56:30.386Z,9.430312
2022-11-21T03:57:29.374Z,9.430386
2022-11-21T03:58:29.392Z,9.430333
2022-11-21T03:59:29.945Z,9.430334
2022-11-21T04:00:29.396Z,9.430321
2022-11-21T04:01:33.749Z,9.430288
2022-11-21T04:02:31.317Z,9.430324
2022-11-21T04:03:29.309Z,9.430352
2022-11-21T04:04:29.718Z,9.430334
2022-11-21T04:05:29.297Z,9.430348
2022-11-21T04:06:29.274Z,9.430347
2022-11-21T04:07:29.272Z,9.430344
2022-11-21T04:08:29.241Z,9.430324
2022-11-21T04:09:29.233Z,9.430297
2022-11-21T04:10:29.252Z,9.430378
2022-11-21T04:11:29.229Z,9.430367
2022-11-21T04:12:29.202Z,9.430358
2022-11-21T04:13:29.201Z,9.430368
2022-11-21T04:14:29.627Z,9.430372
2022-11-21T04:15:29.170Z,9.430388
2022-11-21T04:16:29.162Z,9.430361
2022-11-21T04:17:29.174Z,9.430341
2022-11-21T04:18:29.197Z,9.430372
2022-11-21T04:19:29.143Z,9.430306
2022-11-21T04:20:29.150Z,9.430377
2022-11-21T04:21:29.122Z,9.430366
2022-11-21T04:22:29.094Z,9.430349
2022-11-21T04:23:29.086Z,9.430253
2022-11-21T04:24:29.430Z,9.430292
2022-11-21T04:25:29.127Z,9.430327
2022-11-21T04:26:29.074Z,9.430369
2022-11-21T04:27:29.110Z,9.430326
2022-11-21T04:28:29.087Z,9.430302
2022-11-21T04:29:29.022Z,9.430318
2022-11-21T04:30:29.062Z,9.430302
2022-11-21T04:31:29.004Z,9.430319
2022-11-21T04:32:28.998Z,9.430336
2022-11-21T04:33:29.011Z,9.430324
2022-11-21T04:34:29.241Z,9.430359
2022-11-21T04:35:28.958Z,9.430369
2022-11-21T04:36:28.992Z,9.430323
2022-11-21T04:37:28.930Z,9.430309
2022-11-21T04:38:28.920Z,9.430300
2022-11-21T04:39:28.897Z,9.430342
2022-11-21T04:40:28.923Z,9.430369
2022-11-21T04:41:28.907Z,9.430354
2022-11-21T04:42:29.912Z,9.430440
2022-11-21T04:43:28.890Z,9.430376
2022-11-21T04:44:29.088Z,9.430389
2022-11-21T04:45:28.883Z,9.430322
2022-11-21T04:46:28.839Z,9.430400
2022-11-21T04:47:28.850Z,9.430342
2022-11-21T04:48:28.784Z,9.430314
2022-11-21T04:49:28.904Z,9.430344
2022-11-21T04:50:28.787Z,9.430347
2022-11-21T04:51:28.780Z,9.430341
2022-11-21T04:52:28.765Z,9.430287
2022-11-21T04:53:28.787Z,9.430322
2022-11-21T04:54:29.037Z,9.430333
2022-11-21T04:55:28.789Z,9.430297
2022-11-21T04:56:28.732Z,9.430320
2022-11-21T04:57:28.713Z,9.430317
2022-11-21T04:58:28.733Z,9.430326
2022-11-21T04:59:28.697Z,9.430333
2022-11-21T05:00:28.672Z,9.430299
2022-11-21T05:01:29.585Z,9.430331
2022-11-21T05:02:28.652Z,9.430310
2022-11-21T05:03:28.673Z,9.430362
2022-11-21T05:04:28.735Z,9.430382
2022-11-21T05:05:28.612Z,9.430341
2022-11-21T05:06:28.609Z,9.430356
2022-11-21T05:07:28.679Z,9.430360
2022-11-21T05:08:28.582Z,9.430279
2022-11-21T05:09:28.557Z,9.430318
2022-11-21T05:10:28.574Z,9.430384
2022-11-21T05:11:28.566Z,9.430375
2022-11-21T05:12:28.546Z,9.430387
2022-11-21T05:13:28.594Z,9.430358
2022-11-21T05:14:28.915Z,9.430363
2022-11-21T05:15:28.522Z,9.430393
2022-11-21T05:16:28.500Z,9.430366
2022-11-21T05:17:28.563Z,9.430343
2022-11-21T05:18:28.513Z,9.430348
2022-11-21T05:19:28.474Z,9.430314
2022-11-21T05:20:28.468Z,9.430334
2022-11-21T05:21:28.485Z,9.430350
2022-11-21T05:22:28.519Z,9.430320
2022-11-21T05:23:28.455Z,9.430276
2022-11-21T05:24:28.593Z,9.430329
2022-11-21T05:25:28.396Z,9.430340
2022-11-21T05:26:28.392Z,9.430363
2022-11-21T05:27:28.371Z,9.430354
2022-11-21T05:28:28.356Z,9.430405
2022-11-21T05:29:28.440Z,9.430376
2022-11-21T05:30:28.334Z,9.430317
2022-11-21T05:31:28.351Z,9.430380
2022-11-21T05:32:28.314Z,9.430340
2022-11-21T05:33:28.323Z,9.430411
2022-11-21T05:34:28.572Z,9.430384
2022-11-21T05:35:28.310Z,9.430320
2022-11-21T05:36:28.343Z,9.430326
2022-11-21T05:37:28.293Z,9.430385
2022-11-21T05:38:28.267Z,9.430444
2022-11-21T05:39:28.266Z,9.430360
2022-11-21T05:40:28.317Z,9.430367
2022-11-21T05:41:28.227Z,9.430361
2022-11-21T05:42:28.288Z,9.430321
2022-11-21T05:43:28.228Z,9.430332
2022-11-21T05:44:28.557Z,9.430311
2022-11-21T05:45:28.195Z,9.430371
2022-11-21T05:46:28.176Z,9.430354
2022-11-21T05:47:28.193Z,9.430364
2022-11-21T05:48:28.143Z,9.430397
2022-11-21T05:49:28.142Z,9.430384
2022-11-21T05:50:28.144Z,9.430365
2022-11-21T05:51:28.244Z,9.430342
2022-11-21T05:52:28.117Z,9.430379
2022-11-21T05:53:28.145Z,9.430431
2022-11-21T05:54:28.424Z,9.430347
2022-11-21T05:55:28.089Z,9.430348
2022-11-21T05:56:28.104Z,9.430360
2022-11-21T05:57:28.081Z,9.430379
2022-11-21T05:58:28.105Z,9.430328
2022-11-21T05:59:28.050Z,9.430357
2022-11-21T06:00:28.017Z,9.430366
2022-11-21T06:01:28.009Z,9.430367
2022-11-21T06:02:28.513Z,9.430331
2022-11-21T06:03:28.106Z,9.430309
2022-11-21T06:04:28.176Z,9.430296
2022-11-21T06:05:28.008Z,9.430336
2022-11-21T06:06:28.121Z,9.430325
2022-11-21T06:07:28.176Z,9.430346
2022-11-21T06:08:27.947Z,9.430276
2022-11-21T06:09:27.922Z,9.430270
2022-11-21T06:10:28.545Z,9.430326
2022-11-21T06:11:28.115Z,9.430405
2022-11-21T06:12:27.990Z,9.430320
2022-11-21T06:13:28.926Z,9.430280
2022-11-21T06:14:28.308Z,9.430323
2022-11-21T06:15:27.987Z,9.430346
2022-11-21T06:16:27.847Z,9.430357
2022-11-21T06:17:27.867Z,9.430265
2022-11-21T06:18:27.843Z,9.430262
2022-11-21T06:19:27.869Z,9.430270
2022-11-21T06:20:27.984Z,9.430253
2022-11-21T06:21:27.919Z,9.430264
2022-11-21T06:22:27.919Z,9.430282
2022-11-21T06:23:27.791Z,9.430277
2022-11-21T06:24:27.930Z,9.430342
2022-11-21T06:25:27.776Z,9.430300
2022-11-21T06:26:27.881Z,9.430268
2022-11-21T06:27:27.811Z,9.430296
2022-11-21T06:28:27.812Z,9.430267
2022-11-21T06:29:27.827Z,9.430254
2022-11-21T06:30:27.698Z,9.430267
2022-11-21T06:31:27.708Z,9.430241
2022-11-21T06:32:28.415Z,9.430295
2022-11-21T06:33:27.687Z,9.430286
2022-11-21T06:34:27.929Z,9.430302
2022-11-21T06:35:27.793Z,9.430300
2022-11-21T06:36:27.648Z,9.430222
2022-11-21T06:37:27.800Z,9.430361
2022-11-21T06:38:27.619Z,9.430284
2022-11-21T06:39:27.649Z,9.430301
2022-11-21T06:40:27.580Z,9.430290
2022-11-21T06:41:27.596Z,9.430264
2022-11-21T06:42:27.569Z,9.430281
2022-11-21T06:43:27.564Z,9.430166
2022-11-21T06:44:27.778Z,9.430248
2022-11-21T06:45:27.583Z,9.430176
2022-11-21T06:46:27.520Z,9.430251
2022-11-21T06:47:27.532Z,9.430238
2022-11-21T06:48:27.529Z,9.430283
2022-11-21T06:49:27.501Z,9.430330
2022-11-21T06:50:27.475Z,9.430284
2022-11-21T06:51:27.511Z,9.430282
2022-11-21T06:52:27.458Z,9.430346
2022-11-21T06:53:27.509Z,9.430183
2022-11-21T06:54:27.448Z,9.430259
2022-11-21T06:55:27.427Z,9.430242
2022-11-21T06:56:27.417Z,9.430322
2022-11-21T06:57:27.446Z,9.430313
2022-11-21T06:58:27.443Z,9.430285
2022-11-21T06:59:27.373Z,9.430289
2022-11-21T07:00:27.408Z,9.430300
2022-11-21T07:01:27.498Z,9.430268
2022-11-21T07:02:27.334Z,9.430292
2022-11-21T07:03:28.344Z,9.430363
2022-11-21T07:04:27.629Z,9.430399
2022-11-21T07:05:27.326Z,9.430336
2022-11-21T07:06:27.432Z,9.430316
2022-11-21T07:07:27.336Z,9.430364
2022-11-21T07:08:27.334Z,9.430312
2022-11-21T07:09:35.115Z,9.430337
2022-11-21T07:10:29.300Z,9.430293
2022-11-21T07:11:28.311Z,9.430323
2022-11-21T07:12:27.277Z,9.430337
2022-11-21T07:13:27.274Z,9.430339
2022-11-21T07:14:27.247Z,9.430374
2022-11-21T07:15:27.210Z,9.430326
2022-11-21T07:16:27.227Z,9.430367
2022-11-21T07:17:27.237Z,9.430369
2022-11-21T07:18:27.229Z,9.430325
2022-11-21T07:19:28.427Z,9.430310
2022-11-21T07:20:27.162Z,9.430330
2022-11-21T07:21:27.167Z,9.430359
2022-11-21T07:22:27.167Z,9.430324
2022-11-21T07:23:27.131Z,9.430278
2022-11-21T07:24:27.132Z,9.430328
2022-11-21T07:25:28.056Z,9.430351
2022-11-21T07:26:27.108Z,9.430335
2022-11-21T07:27:27.119Z,9.430367
2022-11-21T07:28:27.063Z,9.430344
2022-11-21T07:29:27.371Z,9.430389
2022-11-21T07:30:28.096Z,9.430416
2022-11-21T07:31:27.955Z,9.430422
2022-11-21T07:32:27.023Z,9.430327
2022-11-21T07:33:27.012Z,9.430296
2022-11-21T07:34:26.991Z,9.430266
2022-11-21T07:35:27.000Z,9.430400
2022-11-21T07:36:26.987Z,9.430321
2022-11-21T07:37:26.955Z,9.430308
2022-11-21T07:38:26.949Z,9.430356
2022-11-21T07:39:28.010Z,9.430427
2022-11-21T07:40:26.924Z,9.430359
2022-11-21T07:41:26.929Z,9.430319
2022-11-21T07:42:26.912Z,9.430366
2022-11-21T07:43:26.880Z,9.430367
2022-11-21T07:44:26.897Z,9.430346
2022-11-21T07:45:26.914Z,9.430341
2022-11-21T07:46:27.000Z,9.430355
2022-11-21T07:47:26.893Z,9.430310
2022-11-21T07:48:26.844Z,9.430308
2022-11-21T07:49:27.161Z,9.430308
2022-11-21T07:50:26.872Z,9.430310
2022-11-21T07:51:26.864Z,9.430280
2022-11-21T07:52:26.821Z,9.430314
2022-11-21T07:53:27.477Z,9.430358
2022-11-21T07:54:26.764Z,9.430328
2022-11-21T07:55:26.777Z,9.430317
2022-11-21T07:56:26.841Z,9.430396
2022-11-21T07:57:26.813Z,9.430377
2022-11-21T07:58:26.741Z,9.430318
2022-11-21T07:59:27.149Z,9.430316
2022-11-21T08:00:26.721Z,9.430398
2022-11-21T08:01:26.753Z,9.430363
2022-11-21T08:02:26.701Z,9.430371
2022-11-21T08:03:26.658Z,9.430369
2022-11-21T08:04:26.655Z,9.430379
2022-11-21T08:05:26.696Z,9.430348
2022-11-21T08:06:26.665Z,9.430348
2022-11-21T08:07:26.673Z,9.430343
2022-11-21T08:08:26.690Z,9.430331
2022-11-21T08:09:26.922Z,9.430333
2022-11-21T08:10:26.603Z,9.430324
2022-11-21T08:11:26.629Z,9.430337
2022-11-21T08:12:26.598Z,9.430334
2022-11-21T08:13:26.600Z,9.430324
2022-11-21T08:14:26.570Z,9.430335
2022-11-21T08:15:26.541Z,9.430311
2022-11-21T08:16:26.547Z,9.430318
2022-11-21T08:17:26.547Z,9.430346
2022-11-21T08:18:26.533Z,9.430312
2022-11-21T08:19:26.842Z,9.430342
2022-11-21T08:20:26.609Z,9.430302
2022-11-21T08:21:26.474Z,9.430311
2022-11-21T08:22:26.462Z,9.430338
2022-11-21T08:23:26.440Z,9.430343
2022-11-21T08:24:26.520Z,9.430327
2022-11-21T08:25:26.480Z,9.430346
2022-11-21T08:26:26.432Z,9.430335
2022-11-21T08:27:26.429Z,9.430326
2022-11-21T08:28:26.403Z,9.430327
2022-11-21T08:29:26.962Z,9.430326
2022-11-21T08:30:26.433Z,9.430300
2022-11-21T08:31:26.411Z,9.430305
2022-11-21T08:32:26.395Z,9.430328
2022-11-21T08:33:26.418Z,9.430347
2022-11-21T08:34:26.478Z,9.430337
2022-11-21T08:35:26.409Z,9.430334
2022-11-21T08:36:26.382Z,9.430309
2022-11-21T08:37:26.365Z,9.430326
2022-11-21T08:38:26.342Z,9.430367
2022-11-21T08:39:26.769Z,9.430356
2022-11-21T08:40:26.428Z,9.430353
2022-11-21T08:41:26.287Z,9.430335
2022-11-21T08:42:26.272Z,9.430324
2022-11-21T08:43:26.256Z,9.430358
2022-11-21T08:44:26.386Z,9.430324
2022-11-21T08:45:26.228Z,9.430359
2022-11-21T08:46:26.287Z,9.430337
2022-11-21T08:47:26.299Z,9.430330
2022-11-21T08:48:26.219Z,9.430385
2022-11-21T08:49:26.251Z,9.430382
2022-11-21T08:50:26.185Z,9.430374
2022-11-21T08:51:26.223Z,9.430371
2022-11-21T08:52:26.183Z,9.430370
2022-11-21T08:53:26.157Z,9.430367
2022-11-21T08:54:26.295Z,9.430340
2022-11-21T08:55:26.134Z,9.430323
2022-11-21T08:56:26.103Z,9.430331
2022-11-21T08:57:26.136Z,9.430346
2022-11-21T08:58:26.945Z,9.430304
2022-11-21T08:59:26.094Z,9.430285
2022-11-21T09:00:26.185Z,9.430343
2022-11-21T09:01:26.095Z,9.430367
2022-11-21T09:02:26.060Z,9.430338
2022-11-21T09:03:30.813Z,9.430336
2022-11-21T09:04:28.532Z,9.430349
2022-11-21T09:05:26.019Z,9.430338
2022-11-21T09:06:26.023Z,9.430340
2022-11-21T09:07:26.044Z,9.430323
2022-11-21T09:08:26.075Z,9.430323
2022-11-21T09:09:25.997Z,9.430278
2022-11-21T09:10:25.971Z,9.430305
2022-11-21T09:11:25.960Z,9.430349
2022-11-21T09:12:25.963Z,9.430379
2022-11-21T09:13:25.950Z,9.430310
2022-11-21T09:14:26.122Z,9.430336
2022-11-21T09:15:25.994Z,9.430339
2022-11-21T09:16:25.893Z,9.430319
2022-11-21T09:17:25.879Z,9.430351
2022-11-21T09:18:25.888Z,9.430317
2022-11-21T09:19:26.086Z,9.430302
2022-11-21T09:20:25.952Z,9.430325
2022-11-21T09:21:25.867Z,9.430330
2022-11-21T09:22:25.840Z,9.430322
2022-11-21T09:23:25.890Z,9.430284
2022-11-21T09:24:25.849Z,9.430234
2022-11-21T09:25:25.894Z,9.430310
2022-11-21T09:26:25.811Z,9.430311
2022-11-21T09:27:25.832Z,9.430378
2022-11-21T09:28:25.801Z,9.430371
2022-11-21T09:29:26.136Z,9.430363
2022-11-21T09:30:25.790Z,9.430350
2022-11-21T09:31:26.803Z,9.430345
2022-11-21T09:32:25.747Z,9.430334
2022-11-21T09:33:25.688Z,9.430354
2022-11-21T09:34:25.913Z,9.430348
2022-11-21T09:35:25.750Z,9.430324
2022-11-21T09:36:25.701Z,9.430310
2022-11-21T09:37:25.689Z,9.430283
2022-11-21T09:38:26.028Z,9.430311
2022-11-21T09:39:25.956Z,9.430401
2022-11-21T09:40:25.649Z,9.430425
2022-11-21T09:41:25.642Z,9.430403
2022-11-21T09:42:25.713Z,9.430416
2022-11-21T09:43:25.617Z,9.430399
2022-11-21T09:44:25.935Z,9.430338
2022-11-21T09:45:25.588Z,9.430360
2022-11-21T09:46:25.554Z,9.430405
2022-11-21T09:47:25.562Z,9.430372
2022-11-21T09:48:25.662Z,9.430360
2022-11-21T09:49:25.787Z,9.430412
2022-11-21T09:50:25.561Z,9.430407
2022-11-21T09:51:25.518Z,9.430397
2022-11-21T09:52:25.554Z,9.430381
2022-11-21T09:53:25.519Z,9.430442
2022-11-21T09:54:25.671Z,9.430406
2022-11-21T09:55:25.493Z,9.430432
2022-11-21T09:56:25.493Z,9.430371
2022-11-21T09:57:28.408Z,9.430378
2022-11-21T09:58:26.465Z,9.430364
2022-11-21T09:59:25.440Z,9.430408
2022-11-21T10:00:25.548Z,9.430387
2022-11-21T10:01:25.603Z,9.430424
2022-11-21T10:02:25.395Z,9.430373
2022-11-21T10:03:25.398Z,9.430367
2022-11-21T10:04:25.537Z,9.430364
2022-11-21T10:05:25.381Z,9.430393
2022-11-21T10:06:25.382Z,9.430373
2022-11-21T10:07:26.430Z,9.430379
2022-11-21T10:08:25.378Z,9.430486
2022-11-21T10:09:25.373Z,9.430437
2022-11-21T10:10:25.417Z,9.430392
2022-11-21T10:11:25.290Z,9.430424
2022-11-21T10:12:25.353Z,9.430369
2022-11-21T10:13:25.690Z,9.430379
2022-11-21T10:14:25.610Z,9.430399
2022-11-21T10:15:25.299Z,9.430389
2022-11-21T10:16:25.268Z,9.430349
2022-11-21T10:17:25.294Z,9.430346
2022-11-21T10:18:25.239Z,9.430388
2022-11-21T10:19:25.257Z,9.430411
2022-11-21T10:20:25.384Z,9.430365
2022-11-21T10:21:25.194Z,9.430328
2022-11-21T10:22:25.292Z,9.430343
2022-11-21T10:23:25.214Z,9.430344
2022-11-21T10:24:25.207Z,9.430365
2022-11-21T10:25:27.248Z,9.430354
2022-11-21T10:26:26.216Z,9.430377
2022-11-21T10:27:25.154Z,9.430387
2022-11-21T10:28:25.142Z,9.430357
2022-11-21T10:29:25.128Z,9.430364
2022-11-21T10:30:25.116Z,9.430366
2022-11-21T10:31:25.128Z,9.430344
2022-11-21T10:32:25.088Z,9.430357
2022-11-21T10:33:25.095Z,9.430359
2022-11-21T10:34:25.563Z,9.430336
2022-11-21T10:35:25.087Z,9.430393
2022-11-21T10:36:25.039Z,9.430381
2022-11-21T10:37:25.111Z,9.430425
2022-11-21T10:38:25.023Z,9.430426
2022-11-21T10:39:26.029Z,9.430403
2022-11-21T10:40:25.003Z,9.430366
2022-11-21T10:41:25.003Z,9.430377
2022-11-21T10:42:25.025Z,9.430404
2022-11-21T10:43:25.012Z,9.430369
2022-11-21T10:44:25.054Z,9.430364
2022-11-21T10:45:24.975Z,9.430355
2022-11-21T10:46:24.935Z,9.430327
2022-11-21T10:47:24.915Z,9.430342
2022-11-21T10:48:24.952Z,9.430372
2022-11-21T10:49:24.939Z,9.430372
2022-11-21T10:50:24.879Z,9.430408
2022-11-21T10:51:24.891Z,9.430363
2022-11-21T10:52:24.895Z,9.430372
2022-11-21T10:53:24.901Z,9.430362
2022-11-21T10:54:24.893Z,9.430352
2022-11-21T10:55:24.864Z,9.430389
2022-11-21T10:56:25.016Z,9.430370
2022-11-21T10:57:24.783Z,9.430373
2022-11-21T10:58:24.805Z,9.430392
2022-11-21T10:59:30.112Z,9.430405
2022-11-21T11:00:25.797Z,9.430401
2022-11-21T11:01:24.908Z,9.430380
2022-11-21T11:02:24.881Z,9.430369
2022-11-21T11:03:24.760Z,9.430346
2022-11-21T11:04:29.034Z,9.430372
2022-11-21T11:05:26.771Z,9.430412
2022-11-21T11:06:24.713Z,9.430369
2022-11-21T11:07:24.811Z,9.430360
2022-11-21T11:08:24.716Z,9.430336
2022-11-21T11:09:24.689Z,9.430362
2022-11-21T11:10:28.506Z,9.430346
2022-11-21T11:11:25.659Z,9.430362
2022-11-21T11:12:24.735Z,9.430397
2022-11-21T11:13:45.398Z,9.430396
2022-11-21T11:14:27.113Z,9.430339
2022-11-21T11:15:24.652Z,9.430380
2022-11-21T11:16:24.604Z,9.430374
2022-11-21T11:17:24.670Z,9.430369
2022-11-21T11:18:24.596Z,9.430333
2022-11-21T11:19:32.659Z,9.430346
2022-11-21T11:20:26.585Z,9.430403
2022-11-21T11:21:24.607Z,9.430393
2022-11-21T11:22:24.554Z,9.430346
2022-11-21T11:23:24.524Z,9.430346
2022-11-21T11:24:24.543Z,9.430387
2022-11-21T11:25:24.520Z,9.430372
2022-11-21T11:26:24.500Z,9.430349
2022-11-21T11:27:24.481Z,9.430363
2022-11-21T11:28:24.494Z,9.430367
2022-11-21T11:29:24.492Z,9.430345
2022-11-21T11:30:24.508Z,9.430363
2022-11-21T11:31:24.480Z,9.430402
2022-11-21T11:32:25.406Z,9.430345
2022-11-21T11:33:24.429Z,9.430392
2022-11-21T11:34:24.426Z,9.430367
2022-11-21T11:35:24.381Z,9.430424
2022-11-21T11:36:24.465Z,9.430355
2022-11-21T11:37:24.365Z,9.430385
2022-11-21T11:38:24.372Z,9.430360
2022-11-21T11:39:24.358Z,9.430382
2022-11-21T11:40:24.377Z,9.430427
2022-11-21T11:41:24.333Z,9.430375
2022-11-21T11:42:24.453Z,9.430368
2022-11-21T11:43:24.329Z,9.430382
2022-11-21T11:44:24.344Z,9.430333